sensor_id;sensor_type;location;lat;lon;timestamp;temperature;humidity
27940;DHT22;15275;51.716;14.324;2023-03-23T00:00:00;15.80;63.40
27940;DHT22;15275;51.716;14.324;2023-03-23T00:02:27;15.80;63.40
27940;DHT22;15275;51.716;14.324;2023-03-23T00:04:54;15.80;63.40
27940;DHT22;15275;51.716;14.324;2023-03-23T00:07:23;15.80;63.50
27940;DHT22;15275;51.716;14.324;2023-03-23T00:09:53;15.80;63.40
27940;DHT22;15275;51.716;14.324;2023-03-23T00:12:25;15.90;63.40
27940;DHT22;15275;51.716;14.324;2023-03-23T00:15:04;15.90;63.30
27940;DHT22;15275;51.716;14.324;2023-03-23T00:17:32;15.90;63.30
27940;DHT22;15275;51.716;14.324;2023-03-23T00:19:58;15.90;63.40
27940;DHT22;15275;51.716;14.324;2023-03-23T00:22:27;16.00;63.40
27940;DHT22;15275;51.716;14.324;2023-03-23T00:24:53;16.00;63.40
27940;DHT22;15275;51.716;14.324;2023-03-23T00:27:21;16.00;63.40
27940;DHT22;15275;51.716;14.324;2023-03-23T00:29:49;16.00;63.30
27940;DHT22;15275;51.716;14.324;2023-03-23T00:32:18;16.00;63.30
27940;DHT22;15275;51.716;14.324;2023-03-23T00:34:55;16.10;63.30
27940;DHT22;15275;51.716;14.324;2023-03-23T00:37:25;16.10;63.30
27940;DHT22;15275;51.716;14.324;2023-03-23T00:43:33;16.10;62.70
27940;DHT22;15275;51.716;14.324;2023-03-23T00:46:02;16.10;63.30
27940;DHT22;15275;51.716;14.324;2023-03-23T00:48:34;16.10;63.20
27940;DHT22;15275;51.716;14.324;2023-03-23T00:51:02;16.10;63.10
27940;DHT22;15275;51.716;14.324;2023-03-23T00:53:32;16.10;63.20
27940;DHT22;15275;51.716;14.324;2023-03-23T00:55:58;16.10;63.30
27940;DHT22;15275;51.716;14.324;2023-03-23T00:58:24;16.10;63.30
27940;DHT22;15275;51.716;14.324;2023-03-23T01:00:50;16.10;63.20
27940;DHT22;15275;51.716;14.324;2023-03-23T01:03:16;16.00;63.20
27940;DHT22;15275;51.716;14.324;2023-03-23T01:05:45;16.10;63.20
27940;DHT22;15275;51.716;14.324;2023-03-23T01:08:17;16.10;63.20
27940;DHT22;15275;51.716;14.324;2023-03-23T01:10:44;16.10;63.30
27940;DHT22;15275;51.716;14.324;2023-03-23T01:13:11;16.10;63.30
27940;DHT22;15275;51.716;14.324;2023-03-23T01:15:37;16.10;63.30
27940;DHT22;15275;51.716;14.324;2023-03-23T01:18:04;16.10;63.30
27940;DHT22;15275;51.716;14.324;2023-03-23T01:20:30;16.10;63.30
27940;DHT22;15275;51.716;14.324;2023-03-23T01:23:00;16.20;63.10
27940;DHT22;15275;51.716;14.324;2023-03-23T01:25:27;16.20;63.20
27940;DHT22;15275;51.716;14.324;2023-03-23T01:27:56;16.20;63.20
27940;DHT22;15275;51.716;14.324;2023-03-23T01:30:23;16.20;63.20
27940;DHT22;15275;51.716;14.324;2023-03-23T01:32:50;16.20;63.20
27940;DHT22;15275;51.716;14.324;2023-03-23T01:35:17;16.20;63.20
27940;DHT22;15275;51.716;14.324;2023-03-23T01:37:43;16.20;63.20
27940;DHT22;15275;51.716;14.324;2023-03-23T01:40:10;16.20;63.20
27940;DHT22;15275;51.716;14.324;2023-03-23T01:42:37;16.30;63.10
27940;DHT22;15275;51.716;14.324;2023-03-23T01:45:24;16.30;63.10
27940;DHT22;15275;51.716;14.324;2023-03-23T01:50:24;16.30;62.80
27940;DHT22;15275;51.716;14.324;2023-03-23T01:52:54;16.30;62.90
27940;DHT22;15275;51.716;14.324;2023-03-23T01:55:22;16.30;62.90
27940;DHT22;15275;51.716;14.324;2023-03-23T01:57:50;16.30;62.70
27940;DHT22;15275;51.716;14.324;2023-03-23T02:00:16;16.30;62.90
27940;DHT22;15275;51.716;14.324;2023-03-23T02:02:44;16.30;62.90
27940;DHT22;15275;51.716;14.324;2023-03-23T02:05:17;16.30;63.00
27940;DHT22;15275;51.716;14.324;2023-03-23T02:08:01;16.30;62.80
27940;DHT22;15275;51.716;14.324;2023-03-23T02:10:29;16.30;62.90
27940;DHT22;15275;51.716;14.324;2023-03-23T02:12:57;16.30;62.80
27940;DHT22;15275;51.716;14.324;2023-03-23T02:15:33;16.30;62.80
27940;DHT22;15275;51.716;14.324;2023-03-23T02:28:29;16.30;62.80
27940;DHT22;15275;51.716;14.324;2023-03-23T02:34:47;16.30;62.30
27940;DHT22;15275;51.716;14.324;2023-03-23T02:39:26;16.30;62.20
27940;DHT22;15275;51.716;14.324;2023-03-23T02:41:57;16.20;62.40
27940;DHT22;15275;51.716;14.324;2023-03-23T02:44:27;16.20;62.20
27940;DHT22;15275;51.716;14.324;2023-03-23T02:46:59;16.20;62.20
27940;DHT22;15275;51.716;14.324;2023-03-23T02:49:28;16.20;62.20
27940;DHT22;15275;51.716;14.324;2023-03-23T02:51:59;16.10;62.10
27940;DHT22;15275;51.716;14.324;2023-03-23T02:54:26;16.00;62.10
27940;DHT22;15275;51.716;14.324;2023-03-23T02:56:53;16.00;62.20
27940;DHT22;15275;51.716;14.324;2023-03-23T02:59:20;16.00;62.30
27940;DHT22;15275;51.716;14.324;2023-03-23T03:01:59;15.90;62.40
27940;DHT22;15275;51.716;14.324;2023-03-23T03:04:29;15.90;62.10
27940;DHT22;15275;51.716;14.324;2023-03-23T03:12:51;15.80;62.40
27940;DHT22;15275;51.716;14.324;2023-03-23T03:20:55;15.70;62.40
27940;DHT22;15275;51.716;14.324;2023-03-23T03:23:25;15.70;62.30
27940;DHT22;15275;51.716;14.324;2023-03-23T03:25:54;15.60;62.60
27940;DHT22;15275;51.716;14.324;2023-03-23T03:28:23;15.60;62.70
27940;DHT22;15275;51.716;14.324;2023-03-23T03:30:53;15.60;62.80
27940;DHT22;15275;51.716;14.324;2023-03-23T03:33:23;15.60;62.80
27940;DHT22;15275;51.716;14.324;2023-03-23T03:36:00;15.70;62.70
27940;DHT22;15275;51.716;14.324;2023-03-23T03:38:27;15.70;62.60
27940;DHT22;15275;51.716;14.324;2023-03-23T03:40:54;15.70;62.80
27940;DHT22;15275;51.716;14.324;2023-03-23T03:43:21;15.80;62.70
27940;DHT22;15275;51.716;14.324;2023-03-23T03:45:47;15.80;62.80
27940;DHT22;15275;51.716;14.324;2023-03-23T03:48:13;15.80;62.60
27940;DHT22;15275;51.716;14.324;2023-03-23T03:50:39;15.90;62.60
27940;DHT22;15275;51.716;14.324;2023-03-23T03:53:05;15.90;62.40
27940;DHT22;15275;51.716;14.324;2023-03-23T03:55:32;16.00;62.20
27940;DHT22;15275;51.716;14.324;2023-03-23T03:58:03;16.00;62.20
27940;DHT22;15275;51.716;14.324;2023-03-23T04:00:30;16.00;62.10
27940;DHT22;15275;51.716;14.324;2023-03-23T04:02:56;16.00;62.00
27940;DHT22;15275;51.716;14.324;2023-03-23T04:05:22;16.00;61.90
27940;DHT22;15275;51.716;14.324;2023-03-23T04:07:50;16.00;61.70
27940;DHT22;15275;51.716;14.324;2023-03-23T04:10:18;16.00;61.80
27940;DHT22;15275;51.716;14.324;2023-03-23T04:12:50;16.00;61.70
27940;DHT22;15275;51.716;14.324;2023-03-23T04:15:16;16.00;61.70
27940;DHT22;15275;51.716;14.324;2023-03-23T04:17:41;16.10;61.50
27940;DHT22;15275;51.716;14.324;2023-03-23T04:20:09;16.00;61.40
27940;DHT22;15275;51.716;14.324;2023-03-23T04:22:47;16.10;61.30
27940;DHT22;15275;51.716;14.324;2023-03-23T04:25:19;16.10;61.30
27940;DHT22;15275;51.716;14.324;2023-03-23T04:27:50;16.10;61.60
27940;DHT22;15275;51.716;14.324;2023-03-23T04:30:24;16.10;61.50
27940;DHT22;15275;51.716;14.324;2023-03-23T04:32:50;16.10;61.40
27940;DHT22;15275;51.716;14.324;2023-03-23T04:35:19;16.10;61.50
27940;DHT22;15275;51.716;14.324;2023-03-23T04:37:47;16.10;61.50
27940;DHT22;15275;51.716;14.324;2023-03-23T04:40:13;16.10;61.60
27940;DHT22;15275;51.716;14.324;2023-03-23T04:42:44;16.20;61.40
27940;DHT22;15275;51.716;14.324;2023-03-23T04:45:17;16.20;61.30
27940;DHT22;15275;51.716;14.324;2023-03-23T04:47:51;16.30;61.30
27940;DHT22;15275;51.716;14.324;2023-03-23T04:50:33;16.30;61.50
27940;DHT22;15275;51.716;14.324;2023-03-23T04:53:01;16.40;61.40
27940;DHT22;15275;51.716;14.324;2023-03-23T04:55:35;16.40;61.50
27940;DHT22;15275;51.716;14.324;2023-03-23T04:58:02;16.40;61.20
27940;DHT22;15275;51.716;14.324;2023-03-23T05:00:29;16.40;61.40
27940;DHT22;15275;51.716;14.324;2023-03-23T05:02:55;16.40;61.30
27940;DHT22;15275;51.716;14.324;2023-03-23T05:05:23;16.50;61.20
27940;DHT22;15275;51.716;14.324;2023-03-23T05:07:50;16.50;61.20
27940;DHT22;15275;51.716;14.324;2023-03-23T05:10:16;16.50;61.20
27940;DHT22;15275;51.716;14.324;2023-03-23T05:12:43;16.50;60.80
27940;DHT22;15275;51.716;14.324;2023-03-23T05:15:10;16.50;60.90
27940;DHT22;15275;51.716;14.324;2023-03-23T05:17:37;16.50;61.00
27940;DHT22;15275;51.716;14.324;2023-03-23T05:20:05;16.60;61.00
27940;DHT22;15275;51.716;14.324;2023-03-23T05:22:36;16.60;61.10
27940;DHT22;15275;51.716;14.324;2023-03-23T05:25:04;16.60;61.00
27940;DHT22;15275;51.716;14.324;2023-03-23T05:27:34;16.60;60.90
27940;DHT22;15275;51.716;14.324;2023-03-23T05:30:01;16.60;60.90
27940;DHT22;15275;51.716;14.324;2023-03-23T05:32:28;16.60;60.90
27940;DHT22;15275;51.716;14.324;2023-03-23T05:34:55;16.60;60.90
27940;DHT22;15275;51.716;14.324;2023-03-23T05:37:25;16.60;60.80
27940;DHT22;15275;51.716;14.324;2023-03-23T05:39:52;16.60;60.90
27940;DHT22;15275;51.716;14.324;2023-03-23T05:42:23;16.60;61.00
27940;DHT22;15275;51.716;14.324;2023-03-23T05:44:50;16.70;61.10
27940;DHT22;15275;51.716;14.324;2023-03-23T05:47:16;16.70;61.10
27940;DHT22;15275;51.716;14.324;2023-03-23T05:49:42;16.70;61.10
27940;DHT22;15275;51.716;14.324;2023-03-23T05:52:08;16.80;61.10
27940;DHT22;15275;51.716;14.324;2023-03-23T05:54:34;16.80;61.20
27940;DHT22;15275;51.716;14.324;2023-03-23T05:57:01;16.80;61.30
27940;DHT22;15275;51.716;14.324;2023-03-23T05:59:27;16.90;61.30
27940;DHT22;15275;51.716;14.324;2023-03-23T06:01:53;16.90;61.20
27940;DHT22;15275;51.716;14.324;2023-03-23T06:04:22;17.00;61.30
27940;DHT22;15275;51.716;14.324;2023-03-23T06:06:51;17.00;61.20
27940;DHT22;15275;51.716;14.324;2023-03-23T06:09:19;17.00;61.10
27940;DHT22;15275;51.716;14.324;2023-03-23T06:11:46;17.00;60.80
27940;DHT22;15275;51.716;14.324;2023-03-23T06:14:13;17.10;60.80
27940;DHT22;15275;51.716;14.324;2023-03-23T06:16:39;17.10;60.80
27940;DHT22;15275;51.716;14.324;2023-03-23T06:19:04;17.10;60.70
27940;DHT22;15275;51.716;14.324;2023-03-23T06:21:33;17.20;60.70
27940;DHT22;15275;51.716;14.324;2023-03-23T06:24:00;17.20;60.80
27940;DHT22;15275;51.716;14.324;2023-03-23T06:26:30;17.20;60.70
27940;DHT22;15275;51.716;14.324;2023-03-23T06:28:58;17.30;60.70
27940;DHT22;15275;51.716;14.324;2023-03-23T06:31:24;17.30;60.50
27940;DHT22;15275;51.716;14.324;2023-03-23T06:33:52;17.30;60.60
27940;DHT22;15275;51.716;14.324;2023-03-23T06:36:18;17.30;60.70
27940;DHT22;15275;51.716;14.324;2023-03-23T06:38:44;17.40;60.80
27940;DHT22;15275;51.716;14.324;2023-03-23T06:41:11;17.40;60.70
27940;DHT22;15275;51.716;14.324;2023-03-23T06:43:37;17.40;60.60
27940;DHT22;15275;51.716;14.324;2023-03-23T06:46:05;17.40;60.60
27940;DHT22;15275;51.716;14.324;2023-03-23T06:48:32;17.50;60.70
27940;DHT22;15275;51.716;14.324;2023-03-23T06:50:58;17.50;60.50
27940;DHT22;15275;51.716;14.324;2023-03-23T06:53:24;17.50;60.50
27940;DHT22;15275;51.716;14.324;2023-03-23T06:55:50;17.60;60.50
27940;DHT22;15275;51.716;14.324;2023-03-23T06:58:16;17.60;60.40
27940;DHT22;15275;51.716;14.324;2023-03-23T07:00:42;17.70;60.20
27940;DHT22;15275;51.716;14.324;2023-03-23T07:03:09;17.70;60.30
27940;DHT22;15275;51.716;14.324;2023-03-23T07:05:35;17.70;60.20
27940;DHT22;15275;51.716;14.324;2023-03-23T07:08:03;17.80;60.50
27940;DHT22;15275;51.716;14.324;2023-03-23T07:10:29;17.80;60.60
27940;DHT22;15275;51.716;14.324;2023-03-23T07:12:55;17.90;60.70
27940;DHT22;15275;51.716;14.324;2023-03-23T07:15:22;17.90;60.70
27940;DHT22;15275;51.716;14.324;2023-03-23T07:17:48;18.00;61.00
27940;DHT22;15275;51.716;14.324;2023-03-23T07:20:14;18.00;60.80
27940;DHT22;15275;51.716;14.324;2023-03-23T07:22:40;18.00;61.00
27940;DHT22;15275;51.716;14.324;2023-03-23T07:25:07;18.00;60.90
27940;DHT22;15275;51.716;14.324;2023-03-23T07:27:34;18.00;60.90
27940;DHT22;15275;51.716;14.324;2023-03-23T07:30:00;18.00;60.90
27940;DHT22;15275;51.716;14.324;2023-03-23T07:32:26;18.10;60.90
27940;DHT22;15275;51.716;14.324;2023-03-23T07:34:52;18.10;60.90
27940;DHT22;15275;51.716;14.324;2023-03-23T07:37:18;18.10;60.90
27940;DHT22;15275;51.716;14.324;2023-03-23T07:39:44;18.10;60.80
27940;DHT22;15275;51.716;14.324;2023-03-23T07:42:10;18.10;60.90
27940;DHT22;15275;51.716;14.324;2023-03-23T07:44:37;18.20;60.90
27940;DHT22;15275;51.716;14.324;2023-03-23T07:47:03;18.20;60.70
27940;DHT22;15275;51.716;14.324;2023-03-23T07:49:29;18.20;60.70
27940;DHT22;15275;51.716;14.324;2023-03-23T07:51:56;18.20;60.50
27940;DHT22;15275;51.716;14.324;2023-03-23T07:54:23;18.20;60.90
27940;DHT22;15275;51.716;14.324;2023-03-23T07:56:50;18.30;61.00
27940;DHT22;15275;51.716;14.324;2023-03-23T07:59:16;18.30;61.30
27940;DHT22;15275;51.716;14.324;2023-03-23T08:01:42;18.30;61.10
27940;DHT22;15275;51.716;14.324;2023-03-23T08:04:08;18.30;60.90
27940;DHT22;15275;51.716;14.324;2023-03-23T08:06:35;18.30;60.80
27940;DHT22;15275;51.716;14.324;2023-03-23T08:09:01;18.30;60.90
27940;DHT22;15275;51.716;14.324;2023-03-23T08:11:34;18.20;61.10
27940;DHT22;15275;51.716;14.324;2023-03-23T08:14:00;18.20;61.30
27940;DHT22;15275;51.716;14.324;2023-03-23T08:16:27;18.20;61.40
27940;DHT22;15275;51.716;14.324;2023-03-23T08:18:53;18.20;61.60
27940;DHT22;15275;51.716;14.324;2023-03-23T08:21:19;18.10;61.80
27940;DHT22;15275;51.716;14.324;2023-03-23T08:23:47;18.10;62.00
27940;DHT22;15275;51.716;14.324;2023-03-23T08:26:13;18.10;62.10
27940;DHT22;15275;51.716;14.324;2023-03-23T08:28:41;18.10;62.10
27940;DHT22;15275;51.716;14.324;2023-03-23T08:31:13;18.10;62.10
27940;DHT22;15275;51.716;14.324;2023-03-23T08:33:40;18.10;62.20
27940;DHT22;15275;51.716;14.324;2023-03-23T08:36:07;18.00;62.20
27940;DHT22;15275;51.716;14.324;2023-03-23T08:38:34;17.90;62.40
27940;DHT22;15275;51.716;14.324;2023-03-23T08:41:02;17.90;62.60
27940;DHT22;15275;51.716;14.324;2023-03-23T08:43:30;17.80;62.60
27940;DHT22;15275;51.716;14.324;2023-03-23T08:45:58;17.80;62.80
27940;DHT22;15275;51.716;14.324;2023-03-23T08:48:24;17.70;63.00
27940;DHT22;15275;51.716;14.324;2023-03-23T08:50:51;17.70;63.10
27940;DHT22;15275;51.716;14.324;2023-03-23T08:53:18;17.70;63.30
27940;DHT22;15275;51.716;14.324;2023-03-23T08:55:46;17.60;63.60
27940;DHT22;15275;51.716;14.324;2023-03-23T08:58:13;17.60;63.80
27940;DHT22;15275;51.716;14.324;2023-03-23T09:00:39;17.60;64.00
27940;DHT22;15275;51.716;14.324;2023-03-23T09:03:05;17.60;64.00
27940;DHT22;15275;51.716;14.324;2023-03-23T09:05:31;17.60;64.40
27940;DHT22;15275;51.716;14.324;2023-03-23T09:07:58;17.60;64.50
27940;DHT22;15275;51.716;14.324;2023-03-23T09:10:25;17.70;64.90
27940;DHT22;15275;51.716;14.324;2023-03-23T09:12:53;17.70;65.30
27940;DHT22;15275;51.716;14.324;2023-03-23T09:15:20;17.70;65.50
27940;DHT22;15275;51.716;14.324;2023-03-23T09:17:49;17.70;65.50
27940;DHT22;15275;51.716;14.324;2023-03-23T09:20:19;17.80;65.60
27940;DHT22;15275;51.716;14.324;2023-03-23T09:22:51;17.80;66.10
27940;DHT22;15275;51.716;14.324;2023-03-23T09:25:21;17.90;66.40
27940;DHT22;15275;51.716;14.324;2023-03-23T09:27:53;17.90;66.70
27940;DHT22;15275;51.716;14.324;2023-03-23T09:30:31;18.00;66.70
27940;DHT22;15275;51.716;14.324;2023-03-23T09:33:00;18.00;66.90
27940;DHT22;15275;51.716;14.324;2023-03-23T09:35:29;18.10;66.70
27940;DHT22;15275;51.716;14.324;2023-03-23T09:37:57;18.10;66.70
27940;DHT22;15275;51.716;14.324;2023-03-23T09:48:58;18.20;66.80
27940;DHT22;15275;51.716;14.324;2023-03-23T09:52:00;18.20;66.90
27940;DHT22;15275;51.716;14.324;2023-03-23T09:54:40;18.20;67.10
27940;DHT22;15275;51.716;14.324;2023-03-23T09:57:30;18.20;67.50
27940;DHT22;15275;51.716;14.324;2023-03-23T10:00:15;18.20;67.50
27940;DHT22;15275;51.716;14.324;2023-03-23T10:03:17;18.20;67.40
27940;DHT22;15275;51.716;14.324;2023-03-23T10:05:47;18.20;67.70
27940;DHT22;15275;51.716;14.324;2023-03-23T10:08:20;18.20;67.70
27940;DHT22;15275;51.716;14.324;2023-03-23T10:14:15;18.30;68.30
27940;DHT22;15275;51.716;14.324;2023-03-23T10:17:14;18.40;68.80
27940;DHT22;15275;51.716;14.324;2023-03-23T10:19:54;18.50;69.10
27940;DHT22;15275;51.716;14.324;2023-03-23T10:22:35;18.60;69.00
27940;DHT22;15275;51.716;14.324;2023-03-23T10:28:04;18.80;68.40
27940;DHT22;15275;51.716;14.324;2023-03-23T10:30:42;18.90;68.00
27940;DHT22;15275;51.716;14.324;2023-03-23T10:36:42;19.10;67.60
27940;DHT22;15275;51.716;14.324;2023-03-23T10:39:13;19.20;67.40
27940;DHT22;15275;51.716;14.324;2023-03-23T10:41:43;19.30;67.20
27940;DHT22;15275;51.716;14.324;2023-03-23T10:44:27;19.30;67.20
27940;DHT22;15275;51.716;14.324;2023-03-23T10:47:10;19.40;67.20
27940;DHT22;15275;51.716;14.324;2023-03-23T10:49:53;19.50;66.50
27940;DHT22;15275;51.716;14.324;2023-03-23T10:52:40;19.50;67.00
27940;DHT22;15275;51.716;14.324;2023-03-23T10:55:17;19.60;67.10
27940;DHT22;15275;51.716;14.324;2023-03-23T10:57:46;19.60;66.60
27940;DHT22;15275;51.716;14.324;2023-03-23T11:00:26;19.70;66.40
27940;DHT22;15275;51.716;14.324;2023-03-23T11:03:04;19.70;66.30
27940;DHT22;15275;51.716;14.324;2023-03-23T11:08:24;19.80;66.20
27940;DHT22;15275;51.716;14.324;2023-03-23T11:10:55;19.90;65.90
27940;DHT22;15275;51.716;14.324;2023-03-23T11:13:48;19.90;65.50
27940;DHT22;15275;51.716;14.324;2023-03-23T11:16:33;19.90;65.30
27940;DHT22;15275;51.716;14.324;2023-03-23T11:19:13;19.90;64.40
27940;DHT22;15275;51.716;14.324;2023-03-23T11:21:47;19.90;64.30
27940;DHT22;15275;51.716;14.324;2023-03-23T11:24:15;19.90;64.50
27940;DHT22;15275;51.716;14.324;2023-03-23T11:26:43;19.90;64.50
27940;DHT22;15275;51.716;14.324;2023-03-23T11:29:22;19.90;64.00
27940;DHT22;15275;51.716;14.324;2023-03-23T11:34:40;19.80;63.60
27940;DHT22;15275;51.716;14.324;2023-03-23T11:37:21;19.70;63.70
27940;DHT22;15275;51.716;14.324;2023-03-23T11:42:43;19.70;63.50
27940;DHT22;15275;51.716;14.324;2023-03-23T11:45:32;19.70;63.60
27940;DHT22;15275;51.716;14.324;2023-03-23T11:48:44;19.70;63.50
27940;DHT22;15275;51.716;14.324;2023-03-23T11:54:17;19.80;63.20
27940;DHT22;15275;51.716;14.324;2023-03-23T11:56:51;19.90;63.30
27940;DHT22;15275;51.716;14.324;2023-03-23T11:59:26;19.90;63.90
27940;DHT22;15275;51.716;14.324;2023-03-23T12:05:34;20.00;62.70
27940;DHT22;15275;51.716;14.324;2023-03-23T12:15:02;20.20;62.30
27940;DHT22;15275;51.716;14.324;2023-03-23T12:30:45;20.30;61.80
27940;DHT22;15275;51.716;14.324;2023-03-23T12:33:27;20.30;61.40
27940;DHT22;15275;51.716;14.324;2023-03-23T12:42:06;20.40;60.70
27940;DHT22;15275;51.716;14.324;2023-03-23T12:50:26;20.50;60.70
27940;DHT22;15275;51.716;14.324;2023-03-23T12:53:14;20.50;59.60
27940;DHT22;15275;51.716;14.324;2023-03-23T12:55:53;20.50;60.10
27940;DHT22;15275;51.716;14.324;2023-03-23T12:58:32;20.60;60.20
27940;DHT22;15275;51.716;14.324;2023-03-23T13:06:22;20.60;59.70
27940;DHT22;15275;51.716;14.324;2023-03-23T13:12:02;20.60;59.60
27940;DHT22;15275;51.716;14.324;2023-03-23T13:15:00;20.60;60.10
27940;DHT22;15275;51.716;14.324;2023-03-23T13:18:36;20.70;59.20
27940;DHT22;15275;51.716;14.324;2023-03-23T13:24:02;20.80;60.10
27940;DHT22;15275;51.716;14.324;2023-03-23T13:26:30;20.80;59.90
27940;DHT22;15275;51.716;14.324;2023-03-23T13:28:57;20.80;59.70
27940;DHT22;15275;51.716;14.324;2023-03-23T13:38:58;20.70;59.90
27940;DHT22;15275;51.716;14.324;2023-03-23T13:41:25;20.60;59.90
27940;DHT22;15275;51.716;14.324;2023-03-23T13:43:54;20.60;60.10
27940;DHT22;15275;51.716;14.324;2023-03-23T13:46:31;20.50;59.70
27940;DHT22;15275;51.716;14.324;2023-03-23T13:49:18;20.50;59.90
27940;DHT22;15275;51.716;14.324;2023-03-23T13:51:56;20.40;60.00
27940;DHT22;15275;51.716;14.324;2023-03-23T13:57:03;20.30;60.20
27940;DHT22;15275;51.716;14.324;2023-03-23T13:59:34;20.30;60.70
27940;DHT22;15275;51.716;14.324;2023-03-23T14:02:31;20.20;60.80
27940;DHT22;15275;51.716;14.324;2023-03-23T14:05:09;20.20;60.80
27940;DHT22;15275;51.716;14.324;2023-03-23T14:08:02;20.20;60.90
27940;DHT22;15275;51.716;14.324;2023-03-23T14:10:51;20.20;60.60
27940;DHT22;15275;51.716;14.324;2023-03-23T14:16:02;20.20;60.40
27940;DHT22;15275;51.716;14.324;2023-03-23T14:18:35;20.20;60.60
27940;DHT22;15275;51.716;14.324;2023-03-23T14:21:03;20.10;60.60
27940;DHT22;15275;51.716;14.324;2023-03-23T14:23:32;20.10;60.40
27940;DHT22;15275;51.716;14.324;2023-03-23T14:26:08;20.00;60.30
27940;DHT22;15275;51.716;14.324;2023-03-23T14:28:39;19.90;60.50
27940;DHT22;15275;51.716;14.324;2023-03-23T14:31:26;19.80;60.80
27940;DHT22;15275;51.716;14.324;2023-03-23T14:33:54;19.80;60.80
27940;DHT22;15275;51.716;14.324;2023-03-23T14:36:27;19.70;61.00
27940;DHT22;15275;51.716;14.324;2023-03-23T14:39:02;19.70;61.10
27940;DHT22;15275;51.716;14.324;2023-03-23T14:41:31;19.70;61.40
27940;DHT22;15275;51.716;14.324;2023-03-23T14:44:02;19.70;61.50
27940;DHT22;15275;51.716;14.324;2023-03-23T14:46:31;19.70;61.70
27940;DHT22;15275;51.716;14.324;2023-03-23T14:49:00;19.70;61.70
27940;DHT22;15275;51.716;14.324;2023-03-23T14:51:27;19.80;61.60
27940;DHT22;15275;51.716;14.324;2023-03-23T14:53:54;19.80;61.60
27940;DHT22;15275;51.716;14.324;2023-03-23T14:56:22;19.80;61.40
27940;DHT22;15275;51.716;14.324;2023-03-23T14:58:53;19.80;61.30
27940;DHT22;15275;51.716;14.324;2023-03-23T15:01:38;19.80;61.30
27940;DHT22;15275;51.716;14.324;2023-03-23T15:04:15;19.80;61.00
27940;DHT22;15275;51.716;14.324;2023-03-23T15:06:55;19.80;61.40
27940;DHT22;15275;51.716;14.324;2023-03-23T15:09:24;19.70;61.40
27940;DHT22;15275;51.716;14.324;2023-03-23T15:12:02;19.70;61.40
27940;DHT22;15275;51.716;14.324;2023-03-23T15:14:32;19.70;61.40
27940;DHT22;15275;51.716;14.324;2023-03-23T15:17:02;19.70;61.40
27940;DHT22;15275;51.716;14.324;2023-03-23T15:19:36;19.60;61.40
27940;DHT22;15275;51.716;14.324;2023-03-23T15:24:46;19.60;61.20
27940;DHT22;15275;51.716;14.324;2023-03-23T15:29:58;19.40;61.30
27940;DHT22;15275;51.716;14.324;2023-03-23T15:32:38;19.40;61.40
27940;DHT22;15275;51.716;14.324;2023-03-23T15:35:20;19.40;61.40
27940;DHT22;15275;51.716;14.324;2023-03-23T15:37:51;19.30;61.50
27940;DHT22;15275;51.716;14.324;2023-03-23T15:40:21;19.20;61.50
27940;DHT22;15275;51.716;14.324;2023-03-23T15:42:48;19.20;61.60
27940;DHT22;15275;51.716;14.324;2023-03-23T15:45:25;19.10;61.60
27940;DHT22;15275;51.716;14.324;2023-03-23T15:47:52;19.10;61.60
27940;DHT22;15275;51.716;14.324;2023-03-23T15:52:52;19.00;61.90
27940;DHT22;15275;51.716;14.324;2023-03-23T15:55:21;19.00;61.80
27940;DHT22;15275;51.716;14.324;2023-03-23T15:57:49;19.00;61.90
27940;DHT22;15275;51.716;14.324;2023-03-23T16:00:19;19.00;62.00
27940;DHT22;15275;51.716;14.324;2023-03-23T16:03:00;19.00;62.30
27940;DHT22;15275;51.716;14.324;2023-03-23T16:05:27;19.10;62.20
27940;DHT22;15275;51.716;14.324;2023-03-23T16:07:53;19.10;62.20
27940;DHT22;15275;51.716;14.324;2023-03-23T16:10:22;19.10;62.10
27940;DHT22;15275;51.716;14.324;2023-03-23T16:12:48;19.20;61.90
27940;DHT22;15275;51.716;14.324;2023-03-23T16:15:15;19.20;61.80
27940;DHT22;15275;51.716;14.324;2023-03-23T16:17:41;19.20;61.60
27940;DHT22;15275;51.716;14.324;2023-03-23T16:20:21;19.20;61.50
27940;DHT22;15275;51.716;14.324;2023-03-23T16:22:49;19.20;61.10
27940;DHT22;15275;51.716;14.324;2023-03-23T16:25:16;19.20;61.30
27940;DHT22;15275;51.716;14.324;2023-03-23T16:27:44;19.20;61.30
27940;DHT22;15275;51.716;14.324;2023-03-23T16:30:16;19.20;61.10
27940;DHT22;15275;51.716;14.324;2023-03-23T16:32:44;19.10;61.20
27940;DHT22;15275;51.716;14.324;2023-03-23T16:35:12;19.10;60.90
27940;DHT22;15275;51.716;14.324;2023-03-23T16:37:44;19.10;60.80
27940;DHT22;15275;51.716;14.324;2023-03-23T16:40:12;19.00;60.70
27940;DHT22;15275;51.716;14.324;2023-03-23T16:42:39;18.90;60.60
27940;DHT22;15275;51.716;14.324;2023-03-23T16:45:05;18.80;60.50
27940;DHT22;15275;51.716;14.324;2023-03-23T16:47:32;18.80;60.60
27940;DHT22;15275;51.716;14.324;2023-03-23T16:49:57;18.70;60.50
27940;DHT22;15275;51.716;14.324;2023-03-23T16:52:23;18.60;60.50
27940;DHT22;15275;51.716;14.324;2023-03-23T16:54:49;18.50;60.60
27940;DHT22;15275;51.716;14.324;2023-03-23T16:57:15;18.50;60.70
27940;DHT22;15275;51.716;14.324;2023-03-23T16:59:41;18.50;60.80
27940;DHT22;15275;51.716;14.324;2023-03-23T17:02:12;18.40;60.80
27940;DHT22;15275;51.716;14.324;2023-03-23T17:04:44;18.40;61.00
27940;DHT22;15275;51.716;14.324;2023-03-23T17:07:12;18.40;61.00
27940;DHT22;15275;51.716;14.324;2023-03-23T17:09:39;18.40;61.00
27940;DHT22;15275;51.716;14.324;2023-03-23T17:12:05;18.40;61.00
27940;DHT22;15275;51.716;14.324;2023-03-23T17:14:31;18.40;61.10
27940;DHT22;15275;51.716;14.324;2023-03-23T17:16:58;18.40;61.00
27940;DHT22;15275;51.716;14.324;2023-03-23T17:19:24;18.40;61.20
27940;DHT22;15275;51.716;14.324;2023-03-23T17:21:50;18.40;61.20
27940;DHT22;15275;51.716;14.324;2023-03-23T17:24:16;18.30;61.20
27940;DHT22;15275;51.716;14.324;2023-03-23T17:26:42;18.30;61.20
27940;DHT22;15275;51.716;14.324;2023-03-23T17:29:08;18.30;61.20
27940;DHT22;15275;51.716;14.324;2023-03-23T17:31:34;18.30;61.20
27940;DHT22;15275;51.716;14.324;2023-03-23T17:34:00;18.30;61.30
27940;DHT22;15275;51.716;14.324;2023-03-23T17:36:26;18.30;61.20
27940;DHT22;15275;51.716;14.324;2023-03-23T17:38:52;18.30;61.30
27940;DHT22;15275;51.716;14.324;2023-03-23T17:41:18;18.30;61.30
27940;DHT22;15275;51.716;14.324;2023-03-23T17:43:46;18.30;61.30
27940;DHT22;15275;51.716;14.324;2023-03-23T17:46:12;18.20;61.30